createdAt,value
2019-02-27T00:00:44.488Z,10.61
2019-02-27T00:05:53.356Z,11.05
2019-02-27T00:11:02.393Z,12.23
2019-02-27T00:16:11.657Z,11.00
2019-02-27T00:21:20.583Z,8.95
2019-02-27T00:26:30.306Z,10.94
2019-02-27T00:31:39.360Z,10.42
2019-02-27T00:36:48.472Z,10.57
2019-02-27T00:41:57.529Z,9.75
2019-02-27T00:47:06.758Z,12.77
2019-02-27T00:52:18.059Z,10.70
2019-02-27T00:57:24.465Z,8.84
2019-02-27T01:02:33.741Z,9.60
2019-02-27T01:07:43.058Z,10.52
2019-02-27T01:12:52.261Z,7.68
2019-02-27T01:18:01.445Z,11.23
2019-02-27T01:23:11.154Z,8.44
2019-02-27T01:28:19.102Z,8.48
2019-02-27T01:33:28.118Z,8.63
2019-02-27T01:38:38.017Z,8.69
2019-02-27T01:43:45.817Z,9.41
2019-02-27T01:48:55.012Z,10.25
2019-02-27T01:54:04.038Z,7.92
2019-02-27T01:59:14.027Z,13.80
2019-02-27T02:04:22.132Z,9.97
2019-02-27T02:09:31.199Z,13.93
2019-02-27T02:14:40.289Z,10.06
2019-02-27T02:19:49.458Z,7.74
2019-02-27T02:24:58.500Z,10.01
2019-02-27T02:30:08.104Z,9.73
2019-02-27T02:35:17.139Z,10.98
2019-02-27T02:40:30.832Z,9.18
2019-02-27T02:45:34.863Z,8.10
2019-02-27T02:50:44.046Z,9.79
2019-02-27T02:55:53.081Z,11.16
2019-02-27T03:01:02.247Z,9.94
2019-02-27T03:06:11.257Z,8.03
2019-02-27T03:11:20.338Z,10.68
2019-02-27T03:16:29.348Z,8.40
2019-02-27T03:21:38.438Z,8.28
2019-02-27T03:26:51.865Z,7.95
2019-02-27T03:31:59.848Z,6.48
2019-02-27T03:37:04.686Z,10.75
2019-02-27T03:42:13.928Z,8.74
2019-02-27T03:47:22.960Z,9.76
2019-02-27T03:52:36.088Z,8.61
2019-02-27T03:57:40.640Z,7.87
2019-02-27T04:02:49.769Z,8.99
2019-02-27T04:07:58.834Z,8.57
2019-02-27T04:13:08.004Z,8.19
2019-02-27T04:18:17.044Z,6.39
2019-02-27T04:23:26.174Z,6.83
2019-02-27T04:28:35.187Z,7.01
2019-02-27T04:33:44.442Z,7.95
2019-02-27T04:38:53.541Z,4.91
2019-02-27T04:44:05.326Z,5.90
2019-02-27T04:49:11.597Z,8.24
2019-02-27T04:54:20.852Z,5.66
2019-02-27T04:59:29.865Z,6.07
2019-02-27T05:04:39.196Z,6.62
2019-02-27T05:09:48.284Z,6.85
2019-02-27T05:14:57.405Z,6.14
2019-02-27T05:20:09.163Z,6.46
2019-02-27T05:25:15.689Z,6.40
2019-02-27T05:30:24.702Z,5.84
2019-02-27T05:35:33.796Z,5.75
2019-02-27T05:40:42.849Z,7.24
2019-02-27T05:45:51.962Z,9.05
2019-02-27T05:51:01.109Z,5.47
2019-02-27T05:56:10.502Z,5.22
2019-02-27T06:01:19.567Z,5.93
2019-02-27T06:06:28.709Z,5.35
2019-02-27T06:11:37.752Z,6.71
2019-02-27T06:16:46.925Z,5.74
2019-02-27T06:21:56.266Z,5.73
2019-02-27T06:27:06.412Z,6.39
2019-02-27T06:32:13.159Z,6.09
2019-02-27T06:37:22.229Z,6.23
2019-02-27T06:42:31.340Z,7.13
2019-02-27T06:47:40.577Z,5.13
2019-02-27T06:52:49.634Z,5.71
2019-02-27T06:57:58.937Z,6.02
2019-02-27T07:03:08.002Z,7.57
2019-02-27T07:08:17.366Z,6.53
2019-02-27T07:13:29.306Z,7.58
2019-02-27T07:18:36.502Z,6.57
2019-02-27T07:23:44.038Z,5.38
2019-02-27T07:28:53.201Z,8.40
2019-02-27T07:34:02.258Z,8.44
2019-02-27T07:39:11.381Z,7.23
2019-02-27T07:44:20.533Z,5.97
2019-02-27T07:49:30.962Z,6.59
2019-02-27T07:54:38.362Z,6.46
2019-02-27T07:59:47.680Z,8.86
2019-02-27T08:04:56.749Z,9.75
2019-02-27T08:10:05.845Z,6.63
2019-02-27T08:15:14.893Z,6.65
2019-02-27T08:20:24.061Z,6.07
2019-02-27T08:25:33.141Z,7.14
2019-02-27T08:30:42.273Z,7.91
2019-02-27T08:35:51.316Z,7.86
2019-02-27T08:41:00.490Z,7.57
2019-02-27T08:46:09.554Z,8.57
2019-02-27T08:51:18.931Z,6.41
2019-02-27T08:56:29.981Z,7.37
2019-02-27T09:01:37.821Z,4.96
2019-02-27T09:06:45.444Z,5.04
2019-02-27T09:11:54.733Z,8.66
2019-02-27T09:17:03.785Z,6.40
2019-02-27T09:22:12.894Z,14.47
2019-02-27T09:27:23.965Z,9.10
2019-02-27T09:32:23.018Z,15.13
2019-02-27T09:37:32.065Z,13.08
2019-02-27T09:42:41.180Z,12.25
2019-02-27T09:47:50.254Z,12.03
2019-02-27T09:53:01.076Z,13.79
2019-02-27T09:58:11.142Z,11.53
2019-02-27T10:03:20.510Z,12.26
2019-02-27T10:08:26.378Z,14.89
2019-02-27T10:13:37.872Z,12.54
2019-02-27T10:18:44.123Z,14.50
2019-02-27T10:23:53.257Z,13.69
2019-02-27T10:29:02.272Z,15.19
2019-02-27T10:34:11.386Z,18.28
2019-02-27T10:39:20.441Z,15.33
2019-02-27T10:44:33.570Z,17.32
2019-02-27T10:49:38.337Z,16.98
2019-02-27T10:56:11.515Z,20.67
2019-02-27T11:01:10.505Z,19.52
2019-02-27T11:06:20.217Z,16.94
2019-02-27T11:11:29.270Z,17.93
2019-02-27T11:16:38.566Z,19.14
2019-02-27T11:21:47.706Z,18.92
2019-02-27T11:26:57.019Z,20.79
2019-02-27T11:32:05.881Z,21.36
2019-02-27T11:37:16.466Z,21.78
2019-02-27T11:42:24.061Z,25.24
2019-02-27T11:47:33.179Z,21.28
2019-02-27T11:52:48.539Z,23.84
2019-02-27T11:57:50.892Z,24.03
2019-02-27T12:02:59.932Z,25.98
2019-02-27T12:08:09.077Z,27.15
2019-02-27T12:13:18.285Z,29.32
2019-02-27T12:18:27.431Z,27.66
2019-02-27T12:23:36.458Z,27.13
2019-02-27T12:28:47.642Z,26.72
2019-02-27T12:33:46.590Z,29.21
2019-02-27T12:38:55.722Z,27.92
2019-02-27T12:44:04.793Z,28.41
2019-02-27T12:49:14.049Z,25.26
2019-02-27T12:54:23.116Z,28.48
2019-02-27T12:59:33.024Z,30.90
2019-02-27T13:04:40.929Z,28.83
2019-02-27T13:09:50.007Z,27.40
2019-02-27T13:14:59.547Z,27.77
2019-02-27T13:20:09.139Z,29.03
2019-02-27T13:25:16.898Z,33.42
2019-02-27T13:30:26.122Z,36.13
2019-02-27T13:35:35.150Z,35.69
2019-02-27T13:40:44.272Z,41.96
2019-02-27T13:45:53.320Z,34.65
2019-02-27T13:51:02.715Z,36.64
2019-02-27T13:56:11.857Z,34.61
2019-02-27T14:01:20.957Z,30.98
2019-02-27T14:06:29.950Z,35.11
2019-02-27T14:11:39.002Z,40.04
2019-02-27T14:16:49.295Z,38.89
2019-02-27T14:21:56.701Z,40.17
2019-02-27T14:27:05.806Z,36.59
2019-02-27T14:32:15.153Z,33.41
2019-02-27T14:37:24.178Z,36.67
2019-02-27T14:42:33.301Z,41.17
2019-02-27T14:47:42.318Z,39.80
2019-02-27T14:52:51.389Z,38.76
2019-02-27T14:58:02.556Z,37.73
2019-02-27T15:03:01.637Z,38.62
2019-02-27T15:08:10.675Z,43.36
2019-02-27T15:13:19.966Z,38.91
2019-02-27T15:18:29.007Z,40.76
2019-02-27T15:23:38.212Z,37.30
2019-02-27T15:28:47.230Z,33.62
2019-02-27T15:33:56.546Z,30.90
2019-02-27T15:39:05.663Z,37.38
2019-02-27T15:44:14.766Z,39.53
2019-02-27T15:49:23.945Z,38.97
2019-02-27T15:54:33.073Z,32.22
2019-02-27T15:59:42.631Z,32.76
2019-02-27T16:04:52.243Z,31.04
2019-02-27T16:10:05.799Z,30.43
2019-02-27T16:15:09.080Z,32.59
2019-02-27T16:20:18.149Z,31.96
2019-02-27T16:25:27.230Z,30.37
2019-02-27T16:30:37.164Z,36.36
2019-02-27T16:35:46.421Z,28.81
2019-02-27T16:40:53.651Z,32.27
2019-02-27T16:46:07.664Z,34.63
2019-02-27T16:51:11.203Z,30.05
2019-02-27T16:56:20.499Z,31.39
2019-02-27T17:01:30.150Z,37.35
2019-02-27T17:06:38.385Z,30.21
2019-02-27T17:11:47.425Z,32.01
2019-02-27T17:16:56.570Z,30.27
2019-02-27T17:22:05.988Z,32.84
2019-02-27T17:27:16.509Z,28.41
2019-02-27T17:32:24.041Z,30.06
2019-02-27T17:37:33.359Z,34.94
2019-02-27T17:42:42.426Z,35.93
2019-02-27T17:47:51.575Z,33.44
2019-02-27T17:53:00.609Z,39.39
2019-02-27T17:58:09.776Z,31.72
2019-02-27T18:03:18.869Z,38.48
2019-02-27T18:08:28.272Z,33.93
2019-02-27T18:13:37.278Z,30.86
2019-02-27T18:18:46.406Z,30.59
2019-02-27T18:23:58.768Z,35.34
2019-02-27T18:29:04.326Z,29.79
2019-02-27T18:34:12.711Z,31.25
2019-02-27T18:39:21.849Z,34.41
2019-02-27T18:44:30.910Z,32.57
2019-02-27T18:49:40.239Z,34.52
2019-02-27T18:54:49.294Z,32.09
2019-02-27T19:00:01.311Z,29.72
2019-02-27T19:05:07.426Z,28.65
2019-02-27T19:10:15.639Z,39.45
2019-02-27T19:15:25.173Z,31.96
2019-02-27T19:20:34.319Z,37.02
2019-02-27T19:25:43.352Z,33.92
2019-02-27T19:30:52.542Z,30.75
2019-02-27T19:36:02.766Z,30.04
2019-02-27T19:41:10.485Z,31.88
2019-02-27T19:46:19.482Z,32.25
2019-02-27T19:51:28.654Z,35.56
2019-02-27T19:56:38.772Z,30.73
2019-02-27T20:01:42.813Z,32.49
2019-02-27T20:06:46.423Z,36.82
2019-02-27T20:11:55.606Z,35.33
2019-02-27T20:17:04.817Z,36.04
2019-02-27T20:22:15.424Z,33.59
2019-02-27T20:27:25.892Z,32.08
2019-02-27T20:32:31.744Z,31.33
2019-02-27T20:37:41.374Z,25.83
2019-02-27T20:42:50.380Z,26.19
2019-02-27T20:48:01.711Z,29.55
2019-02-27T20:53:06.787Z,24.62
2019-02-27T20:58:16.842Z,24.64
2019-02-27T21:03:27.202Z,25.42
2019-02-27T21:08:33.287Z,22.71
2019-02-27T21:13:41.956Z,21.73
2019-02-27T21:18:52.350Z,22.18
2019-02-27T21:23:59.800Z,22.78
2019-02-27T21:29:09.849Z,20.88
2019-02-27T21:34:20.035Z,19.64
2019-02-27T21:39:28.211Z,19.50
2019-02-27T21:44:34.757Z,20.35
2019-02-27T21:49:43.777Z,20.54
2019-02-27T21:54:53.009Z,21.58
2019-02-27T22:00:02.099Z,20.43
2019-02-27T22:05:11.427Z,23.68
2019-02-27T22:10:20.632Z,20.38
2019-02-27T22:15:29.771Z,18.12
2019-02-27T22:20:38.842Z,18.98
2019-02-27T22:25:49.213Z,21.09
2019-02-27T22:30:48.196Z,16.39
2019-02-27T22:35:57.423Z,21.65
2019-02-27T22:41:09.467Z,15.55
2019-02-27T22:46:16.428Z,18.03
2019-02-27T22:51:23.614Z,16.09
2019-02-27T22:56:33.726Z,15.12
2019-02-27T23:01:32.712Z,18.77
2019-02-27T23:06:43.721Z,17.80
2019-02-27T23:11:50.491Z,18.34
2019-02-27T23:17:00.579Z,17.23
2019-02-27T23:22:08.203Z,19.12
2019-02-27T23:27:17.548Z,23.17
2019-02-27T23:32:28.652Z,21.96
2019-02-27T23:37:35.321Z,15.41
2019-02-27T23:42:44.346Z,15.56
2019-02-27T23:47:53.537Z,19.05
2019-02-27T23:53:02.589Z,15.41
2019-02-27T23:58:11.713Z,17.16
